createdAt,value
2022-12-09T00:00:22.573Z,-2.88
2022-12-09T00:02:50.530Z,-2.85
2022-12-09T00:05:18.595Z,-2.88
2022-12-09T00:07:46.992Z,-2.90
2022-12-09T00:10:16.987Z,-2.91
2022-12-09T00:12:46.317Z,-2.94
2022-12-09T00:15:14.058Z,-3.04
2022-12-09T00:17:41.825Z,-3.14
2022-12-09T00:20:10.874Z,-3.18
2022-12-09T00:22:38.900Z,-3.20
2022-12-09T00:25:07.450Z,-3.28
2022-12-09T00:27:35.232Z,-3.38
2022-12-09T00:30:05.758Z,-3.37
2022-12-09T00:32:33.989Z,-3.44
2022-12-09T00:35:01.957Z,-3.54
2022-12-09T00:37:29.735Z,-3.58
2022-12-09T00:39:57.395Z,-3.59
2022-12-09T00:42:25.248Z,-3.67
2022-12-09T00:44:52.951Z,-3.71
2022-12-09T00:47:22.190Z,-3.64
2022-12-09T00:49:50.261Z,-3.66
2022-12-09T00:52:17.951Z,-3.66
2022-12-09T00:54:45.731Z,-3.71
2022-12-09T00:57:13.620Z,-3.60
2022-12-09T00:59:41.357Z,-3.59
2022-12-09T01:02:09.195Z,-3.62
2022-12-09T01:04:38.443Z,-3.66
2022-12-09T01:07:06.289Z,-3.68
2022-12-09T01:09:34.909Z,-3.64
2022-12-09T01:12:03.884Z,-3.52
2022-12-09T01:14:31.598Z,-3.48
2022-12-09T01:16:59.511Z,-3.50
2022-12-09T01:19:27.435Z,-3.54
2022-12-09T01:21:56.572Z,-3.54
2022-12-09T01:24:24.479Z,-3.54
2022-12-09T01:26:52.432Z,-3.66
2022-12-09T01:29:23.300Z,-3.72
2022-12-09T01:31:51.091Z,-3.76
2022-12-09T01:34:18.807Z,-3.75
2022-12-09T01:36:47.845Z,-3.78
2022-12-09T01:39:17.817Z,-3.75
2022-12-09T01:41:45.864Z,-3.84
2022-12-09T01:44:20.778Z,-3.92
2022-12-09T01:46:49.396Z,-3.85
2022-12-09T01:49:23.373Z,-3.84
2022-12-09T01:51:59.240Z,-3.93
2022-12-09T01:54:28.646Z,-3.92
2022-12-09T01:56:57.387Z,-3.90
2022-12-09T01:59:26.584Z,-3.90
2022-12-09T02:01:59.241Z,-3.91
2022-12-09T02:04:29.895Z,-3.89
2022-12-09T02:06:58.668Z,-3.91
2022-12-09T02:09:26.556Z,-3.93
2022-12-09T02:12:11.363Z,-3.95
2022-12-09T02:14:44.089Z,-4.03
2022-12-09T02:17:25.185Z,-3.99
2022-12-09T02:20:05.335Z,-3.94
2022-12-09T02:22:47.025Z,-3.89
2022-12-09T02:25:27.755Z,-3.86
2022-12-09T02:28:17.929Z,-3.80
2022-12-09T02:30:56.119Z,-3.78
2022-12-09T02:33:39.184Z,-3.73
2022-12-09T02:36:14.206Z,-3.69
2022-12-09T02:38:44.469Z,-3.69
2022-12-09T02:41:17.766Z,-3.65
2022-12-09T02:43:50.296Z,-3.61
2022-12-09T02:46:21.856Z,-3.57
2022-12-09T02:48:56.754Z,-3.52
2022-12-09T02:51:30.912Z,-3.47
2022-12-09T02:54:04.022Z,-3.42
2022-12-09T02:56:33.099Z,-3.40
2022-12-09T02:59:00.933Z,-3.42
2022-12-09T03:01:37.827Z,-3.39
2022-12-09T03:04:21.962Z,-3.38
2022-12-09T03:06:54.326Z,-3.42
2022-12-09T03:09:26.600Z,-3.49
2022-12-09T03:12:00.715Z,-3.58
2022-12-09T03:14:34.129Z,-3.67
2022-12-09T03:17:07.123Z,-3.71
2022-12-09T03:19:40.370Z,-3.69
2022-12-09T03:22:12.903Z,-3.69
2022-12-09T03:24:52.144Z,-3.75
2022-12-09T03:27:24.162Z,-3.80
2022-12-09T03:29:53.208Z,-3.69
2022-12-09T03:32:25.470Z,-3.71
2022-12-09T03:34:58.028Z,-3.68
2022-12-09T03:37:27.876Z,-3.71
2022-12-09T03:39:57.942Z,-3.68
2022-12-09T03:42:34.971Z,-3.71
2022-12-09T03:45:09.363Z,-3.78
2022-12-09T03:47:38.151Z,-3.82
2022-12-09T03:50:07.942Z,-3.80
2022-12-09T03:52:43.961Z,-3.72
2022-12-09T03:55:19.392Z,-3.70
2022-12-09T03:57:49.649Z,-3.77
2022-12-09T04:00:18.382Z,-3.79
2022-12-09T04:02:47.024Z,-3.86
2022-12-09T04:05:15.022Z,-3.84
2022-12-09T04:07:44.974Z,-3.90
2022-12-09T04:10:12.991Z,-3.89
2022-12-09T04:12:42.234Z,-3.87
2022-12-09T04:15:10.971Z,-3.81
2022-12-09T04:17:38.838Z,-3.82
2022-12-09T04:20:08.165Z,-3.83
2022-12-09T04:22:36.343Z,-3.80
2022-12-09T04:25:05.921Z,-3.72
2022-12-09T04:27:33.819Z,-3.68
2022-12-09T04:30:02.306Z,-3.73
2022-12-09T04:32:30.521Z,-3.76
2022-12-09T04:35:01.598Z,-3.76
2022-12-09T04:37:29.531Z,-3.74
2022-12-09T04:39:57.405Z,-3.73
2022-12-09T04:42:27.148Z,-3.60
2022-12-09T04:44:55.042Z,-3.56
2022-12-09T04:47:23.035Z,-3.60
2022-12-09T04:49:50.907Z,-3.64
2022-12-09T04:52:19.196Z,-3.65
2022-12-09T04:54:48.833Z,-3.66
2022-12-09T04:57:16.586Z,-3.65
2022-12-09T04:59:45.906Z,-3.67
2022-12-09T05:02:13.719Z,-3.68
2022-12-09T05:04:43.001Z,-3.67
2022-12-09T05:07:12.549Z,-3.62
2022-12-09T05:09:41.042Z,-3.62
2022-12-09T05:12:09.419Z,-3.59
2022-12-09T05:14:37.397Z,-3.58
2022-12-09T05:17:09.507Z,-3.56
2022-12-09T05:19:39.459Z,-3.42
2022-12-09T05:22:07.467Z,-3.36
2022-12-09T05:24:35.864Z,-3.42
2022-12-09T05:27:03.854Z,-3.43
2022-12-09T05:29:34.614Z,-3.44
2022-12-09T05:32:02.419Z,-3.44
2022-12-09T05:34:32.272Z,-3.44
2022-12-09T05:37:00.727Z,-3.45
2022-12-09T05:39:28.699Z,-3.45
2022-12-09T05:41:56.529Z,-3.40
2022-12-09T05:44:24.433Z,-3.42
2022-12-09T05:46:52.276Z,-3.38
2022-12-09T05:49:20.502Z,-3.39
2022-12-09T05:51:52.678Z,-3.38
2022-12-09T05:54:20.882Z,-3.33
2022-12-09T05:56:49.150Z,-3.38
2022-12-09T05:59:17.052Z,-3.44
2022-12-09T06:01:45.149Z,-3.40
2022-12-09T06:04:16.217Z,-3.39
2022-12-09T06:06:44.678Z,-3.31
2022-12-09T06:09:14.690Z,-3.34
2022-12-09T06:11:42.561Z,-3.33
2022-12-09T06:14:11.596Z,-3.28
2022-12-09T06:16:40.604Z,-3.25
2022-12-09T06:19:08.803Z,-3.26
2022-12-09T06:21:36.989Z,-3.19
2022-12-09T06:24:06.808Z,-3.13
2022-12-09T06:26:36.260Z,-3.02
2022-12-09T06:29:04.303Z,-2.96
2022-12-09T06:31:32.539Z,-2.97
2022-12-09T06:34:01.360Z,-2.94
2022-12-09T06:36:31.506Z,-2.90
2022-12-09T06:39:07.577Z,-2.89
2022-12-09T06:41:39.323Z,-2.74
2022-12-09T06:44:07.443Z,-2.76
2022-12-09T06:46:35.384Z,-2.78
2022-12-09T06:49:03.853Z,-2.75
2022-12-09T06:51:34.499Z,-2.64
2022-12-09T06:54:02.438Z,-2.56
2022-12-09T06:56:35.296Z,-2.48
2022-12-09T06:59:08.716Z,-2.44
2022-12-09T07:01:37.839Z,-2.42
2022-12-09T07:04:07.418Z,-2.35
2022-12-09T07:06:38.321Z,-2.32
2022-12-09T07:09:08.915Z,-2.23
2022-12-09T07:11:37.573Z,-2.19
2022-12-09T07:14:07.478Z,-2.15
2022-12-09T07:16:36.217Z,-2.17
2022-12-09T07:19:05.305Z,-2.23
2022-12-09T07:21:33.845Z,-2.19
2022-12-09T07:24:02.950Z,-2.21
2022-12-09T07:26:32.581Z,-2.24
2022-12-09T07:29:03.085Z,-2.19
2022-12-09T07:31:32.950Z,-2.15
2022-12-09T07:34:02.182Z,-2.09
2022-12-09T07:36:31.674Z,-2.04
2022-12-09T07:39:01.570Z,-1.98
2022-12-09T07:41:30.368Z,-1.96
2022-12-09T07:43:58.555Z,-1.93
2022-12-09T07:46:27.635Z,-1.86
2022-12-09T07:48:58.632Z,-1.74
2022-12-09T07:51:26.963Z,-1.68
2022-12-09T07:53:57.957Z,-1.55
2022-12-09T07:56:28.397Z,-1.47
2022-12-09T07:58:57.421Z,-1.43
2022-12-09T08:01:27.820Z,-1.37
2022-12-09T08:03:58.679Z,-1.41
2022-12-09T08:06:28.711Z,-1.39
2022-12-09T08:09:01.870Z,-1.41
2022-12-09T08:11:31.887Z,-1.42
2022-12-09T08:14:07.172Z,-1.33
2022-12-09T08:16:39.139Z,-1.25
2022-12-09T08:19:09.120Z,-1.24
2022-12-09T08:21:37.692Z,-1.17
2022-12-09T08:24:07.788Z,-1.16
2022-12-09T08:26:37.594Z,-1.10
2022-12-09T08:29:09.834Z,-1.07
2022-12-09T08:31:41.730Z,-1.00
2022-12-09T08:34:12.195Z,-0.93
2022-12-09T08:36:40.804Z,-0.84
2022-12-09T08:39:09.229Z,-0.83
2022-12-09T08:41:39.452Z,-0.81
2022-12-09T08:44:09.694Z,-0.81
2022-12-09T08:46:39.930Z,-0.73
2022-12-09T08:49:11.346Z,-0.65
2022-12-09T08:51:41.401Z,-0.60
2022-12-09T08:54:09.288Z,-0.51
2022-12-09T08:56:37.526Z,-0.47
2022-12-09T08:59:06.088Z,-0.50
2022-12-09T09:01:35.807Z,-0.46
2022-12-09T09:04:06.614Z,-0.43
2022-12-09T09:06:35.321Z,-0.43
2022-12-09T09:09:05.821Z,-0.32
2022-12-09T09:11:34.541Z,-0.30
2022-12-09T09:14:05.044Z,-0.31
2022-12-09T09:16:33.207Z,-0.37
2022-12-09T09:19:05.855Z,-0.36
2022-12-09T09:21:35.618Z,-0.35
2022-12-09T09:24:09.827Z,-0.22
2022-12-09T09:26:41.567Z,-0.04
2022-12-09T09:29:12.565Z,-0.07
2022-12-09T09:31:41.002Z,0.05
2022-12-09T09:34:09.479Z,0.00
2022-12-09T09:36:37.879Z,0.03
2022-12-09T09:39:07.668Z,0.19
2022-12-09T09:41:45.487Z,0.19
2022-12-09T09:44:20.588Z,0.18
2022-12-09T09:46:52.733Z,0.12
2022-12-09T09:49:29.863Z,0.24
2022-12-09T09:51:58.593Z,0.45
2022-12-09T09:54:28.158Z,0.34
2022-12-09T09:57:02.272Z,0.41
2022-12-09T09:59:45.377Z,0.47
2022-12-09T10:02:19.986Z,0.53
2022-12-09T10:05:00.020Z,0.46
2022-12-09T10:07:36.657Z,0.30
2022-12-09T10:10:17.925Z,0.28
2022-12-09T10:13:06.101Z,0.25
2022-12-09T10:15:43.065Z,0.27
2022-12-09T10:18:19.097Z,0.34
2022-12-09T10:20:47.804Z,0.26
2022-12-09T10:23:17.466Z,0.38
2022-12-09T10:25:49.991Z,0.32
2022-12-09T10:28:22.296Z,0.31
2022-12-09T10:30:51.791Z,0.27
2022-12-09T10:33:28.689Z,0.25
2022-12-09T10:35:57.595Z,0.32
2022-12-09T10:38:27.503Z,0.31
2022-12-09T10:41:04.441Z,0.25
2022-12-09T10:43:38.693Z,0.18
2022-12-09T10:46:19.481Z,0.28
2022-12-09T10:48:57.592Z,0.25
2022-12-09T10:51:28.976Z,0.31
2022-12-09T10:54:00.865Z,0.26
2022-12-09T10:56:32.693Z,0.24
2022-12-09T10:59:12.719Z,0.30
2022-12-09T11:01:52.200Z,0.36
2022-12-09T11:04:25.217Z,0.43
2022-12-09T11:06:59.748Z,0.42
2022-12-09T11:09:32.637Z,0.52
2022-12-09T11:12:05.581Z,0.54
2022-12-09T11:14:36.709Z,0.62
2022-12-09T11:17:16.719Z,0.68
2022-12-09T11:19:47.207Z,0.74
2022-12-09T11:22:34.511Z,0.70
2022-12-09T11:25:23.726Z,0.79
2022-12-09T11:27:57.100Z,0.72
2022-12-09T11:30:27.036Z,0.75
2022-12-09T11:33:07.217Z,0.73
2022-12-09T11:35:51.928Z,0.89
2022-12-09T11:38:29.923Z,0.95
2022-12-09T11:41:07.785Z,0.93
2022-12-09T11:43:41.215Z,1.01
2022-12-09T11:46:19.847Z,1.13
2022-12-09T11:48:54.131Z,1.09
2022-12-09T11:51:25.297Z,0.96
2022-12-09T11:54:01.749Z,1.03
2022-12-09T11:56:31.752Z,0.97
2022-12-09T11:59:04.255Z,1.00
2022-12-09T12:01:40.499Z,1.05
2022-12-09T12:04:11.971Z,1.12
2022-12-09T12:06:45.395Z,1.21
2022-12-09T12:09:17.969Z,1.14
2022-12-09T12:11:56.518Z,1.12
2022-12-09T12:14:29.273Z,1.21
2022-12-09T12:17:05.742Z,1.17
2022-12-09T12:19:36.330Z,1.20
2022-12-09T12:22:26.173Z,1.17
2022-12-09T12:25:23.865Z,1.19
2022-12-09T12:28:10.768Z,1.14
2022-12-09T12:30:48.372Z,1.03
2022-12-09T12:36:39.313Z,0.99
2022-12-09T12:39:22.115Z,0.92
2022-12-09T12:41:56.963Z,0.95
2022-12-09T12:44:54.667Z,0.98
2022-12-09T12:47:28.434Z,1.02
2022-12-09T12:50:11.541Z,1.01
2022-12-09T12:52:56.020Z,0.97
2022-12-09T12:55:41.887Z,0.95
2022-12-09T12:58:18.053Z,0.94
2022-12-09T13:01:00.481Z,0.82
2022-12-09T13:03:39.868Z,0.84
2022-12-09T13:06:12.309Z,0.82
2022-12-09T13:08:45.316Z,0.88
2022-12-09T13:11:19.793Z,0.90
2022-12-09T13:13:52.442Z,0.98
2022-12-09T13:16:27.480Z,1.04
2022-12-09T13:19:09.170Z,0.96
2022-12-09T13:21:37.411Z,0.95
2022-12-09T13:24:19.725Z,0.92
2022-12-09T13:26:53.781Z,0.85
2022-12-09T13:29:37.160Z,0.88
2022-12-09T13:32:20.124Z,0.85
2022-12-09T13:34:54.515Z,0.87
2022-12-09T13:37:59.670Z,0.86
2022-12-09T13:40:35.299Z,0.85
2022-12-09T13:43:12.793Z,0.78
2022-12-09T13:45:50.928Z,0.82
2022-12-09T13:48:52.806Z,0.83
2022-12-09T13:51:23.819Z,0.82
2022-12-09T13:54:01.023Z,0.74
2022-12-09T13:56:31.986Z,0.77
2022-12-09T13:59:33.453Z,0.74
2022-12-09T14:02:10.341Z,0.73
2022-12-09T14:04:46.749Z,0.73
2022-12-09T14:07:30.276Z,0.73
2022-12-09T14:09:59.228Z,0.72
2022-12-09T14:13:20.100Z,0.69
2022-12-09T14:15:48.924Z,0.68
2022-12-09T14:18:32.849Z,0.63
2022-12-09T14:21:23.060Z,0.58
2022-12-09T14:24:28.221Z,0.58
2022-12-09T14:27:14.816Z,0.57
2022-12-09T14:29:51.085Z,0.58
2022-12-09T14:32:24.947Z,0.58
2022-12-09T14:35:07.137Z,0.60
2022-12-09T14:37:58.883Z,0.59
2022-12-09T14:40:40.113Z,0.59
2022-12-09T14:43:22.969Z,0.58
2022-12-09T14:45:55.645Z,0.58
2022-12-09T14:48:26.027Z,0.57
2022-12-09T14:51:16.734Z,0.55
2022-12-09T14:53:47.765Z,0.51
2022-12-09T14:56:18.654Z,0.45
2022-12-09T14:58:55.518Z,0.40
2022-12-09T15:01:23.246Z,0.41
2022-12-09T15:03:56.909Z,0.38
2022-12-09T15:06:26.961Z,0.28
2022-12-09T15:08:57.841Z,0.26
2022-12-09T15:11:29.237Z,0.30
2022-12-09T15:14:23.760Z,0.22
2022-12-09T15:16:54.247Z,0.25
2022-12-09T15:19:58.708Z,0.18
2022-12-09T15:22:21.632Z,0.15
2022-12-09T15:24:51.136Z,0.12
2022-12-09T15:27:21.191Z,0.11
2022-12-09T15:29:51.253Z,0.13
2022-12-09T15:32:25.178Z,0.08
2022-12-09T15:34:54.264Z,0.11
2022-12-09T15:37:29.398Z,0.05
2022-12-09T15:40:01.784Z,0.06
2022-12-09T15:42:33.073Z,0.09
2022-12-09T15:45:08.018Z,0.11
2022-12-09T15:47:38.939Z,0.10
2022-12-09T15:50:15.185Z,0.03
2022-12-09T15:52:48.766Z,0.06
2022-12-09T15:55:19.566Z,0.05
2022-12-09T15:57:50.240Z,0.05
2022-12-09T16:00:20.264Z,0.03
2022-12-09T16:02:50.656Z,0.06
2022-12-09T16:08:01.495Z,0.05
2022-12-09T16:10:30.785Z,0.01
2022-12-09T16:13:10.420Z,-0.01
2022-12-09T16:15:50.040Z,-0.04
2022-12-09T16:18:21.054Z,-0.03
2022-12-09T16:21:17.373Z,-0.01
2022-12-09T16:23:45.630Z,0.01
2022-12-09T16:26:19.924Z,-0.02
2022-12-09T16:28:55.456Z,-0.02
2022-12-09T16:31:24.804Z,-0.02
2022-12-09T16:33:52.977Z,0.02
2022-12-09T16:36:25.081Z,0.02
2022-12-09T16:39:43.370Z,-0.03
2022-12-09T16:42:22.582Z,0.04
2022-12-09T16:44:50.488Z,0.00
2022-12-09T16:47:24.161Z,-0.01
2022-12-09T16:49:52.024Z,0.04
2022-12-09T16:52:25.107Z,0.07
2022-12-09T16:54:55.873Z,0.07
2022-12-09T16:57:23.638Z,0.09
2022-12-09T16:59:53.423Z,0.06
2022-12-09T17:02:31.803Z,0.01
2022-12-09T17:05:00.520Z,0.00
2022-12-09T17:07:28.299Z,-0.01
2022-12-09T17:09:56.037Z,0.00
2022-12-09T17:12:23.787Z,0.05
2022-12-09T17:14:52.457Z,0.13
2022-12-09T17:17:20.260Z,0.13
2022-12-09T17:19:51.842Z,0.06
2022-12-09T17:22:19.628Z,0.09
2022-12-09T17:24:50.489Z,0.10
2022-12-09T17:27:18.227Z,0.03
2022-12-09T17:29:46.575Z,0.03
2022-12-09T17:32:16.368Z,0.01
2022-12-09T17:34:44.135Z,0.00
2022-12-09T17:37:13.205Z,0.02
2022-12-09T17:39:41.019Z,0.04
2022-12-09T17:42:08.836Z,0.05
2022-12-09T17:44:36.558Z,0.05
2022-12-09T17:47:04.329Z,0.10
2022-12-09T17:49:32.075Z,0.07
2022-12-09T17:51:59.944Z,0.05
2022-12-09T17:54:29.664Z,0.01
2022-12-09T17:56:57.372Z,0.03
2022-12-09T17:59:27.078Z,0.03
2022-12-09T18:01:54.926Z,0.08
2022-12-09T18:04:22.739Z,0.14
2022-12-09T18:06:53.427Z,0.16
2022-12-09T18:09:22.659Z,0.19
2022-12-09T18:11:52.494Z,0.21
2022-12-09T18:14:20.660Z,0.21
2022-12-09T18:16:49.225Z,0.20
2022-12-09T18:19:20.221Z,0.16
2022-12-09T18:21:48.136Z,0.15
2022-12-09T18:24:15.822Z,0.17
2022-12-09T18:26:43.647Z,0.18
2022-12-09T18:29:13.521Z,0.10
2022-12-09T18:31:42.207Z,0.07
2022-12-09T18:34:09.947Z,0.00
2022-12-09T18:36:37.794Z,0.00
2022-12-09T18:39:08.794Z,0.00
2022-12-09T18:41:37.099Z,0.00
2022-12-09T18:44:07.741Z,-0.01
2022-12-09T18:46:38.943Z,0.03
2022-12-09T18:49:08.539Z,0.02
2022-12-09T18:51:39.898Z,-0.01
2022-12-09T18:54:09.072Z,-0.02
2022-12-09T18:56:41.285Z,-0.03
2022-12-09T18:59:10.089Z,-0.02
2022-12-09T19:01:41.517Z,0.04
2022-12-09T19:04:16.174Z,0.07
2022-12-09T19:06:45.729Z,0.10
2022-12-09T19:09:16.243Z,0.17
2022-12-09T19:11:46.029Z,0.18
2022-12-09T19:14:15.099Z,0.19
2022-12-09T19:16:45.185Z,0.07
2022-12-09T19:19:14.824Z,0.02
2022-12-09T19:21:43.142Z,0.03
2022-12-09T19:24:14.246Z,0.03
2022-12-09T19:26:42.970Z,0.02
2022-12-09T19:29:13.478Z,0.04
2022-12-09T19:31:44.175Z,0.08
2022-12-09T19:34:16.279Z,0.13
2022-12-09T19:36:44.957Z,0.14
2022-12-09T19:39:14.059Z,0.22
2022-12-09T19:41:43.108Z,0.22
2022-12-09T19:44:15.331Z,0.20
2022-12-09T19:46:43.974Z,0.13
2022-12-09T19:49:16.080Z,0.10
2022-12-09T19:51:44.608Z,0.10
2022-12-09T19:54:15.472Z,0.11
2022-12-09T19:56:44.387Z,0.15
2022-12-09T19:59:12.584Z,0.14
2022-12-09T20:01:43.489Z,0.11
2022-12-09T20:04:47.008Z,0.05
2022-12-09T20:07:08.084Z,0.11
2022-12-09T20:09:37.385Z,0.12
2022-12-09T20:12:05.773Z,0.15
2022-12-09T20:14:36.011Z,0.17
2022-12-09T20:17:03.899Z,0.10
2022-12-09T20:19:33.228Z,0.04
2022-12-09T20:22:01.041Z,0.00
2022-12-09T20:24:30.343Z,0.02
2022-12-09T20:26:58.098Z,0.14
2022-12-09T20:29:25.841Z,0.18
2022-12-09T20:31:55.695Z,0.19
2022-12-09T20:34:23.585Z,0.21
2022-12-09T20:36:53.192Z,0.17
2022-12-09T20:39:22.040Z,0.14
2022-12-09T20:41:50.474Z,0.10
2022-12-09T20:44:19.996Z,0.14
2022-12-09T20:46:49.614Z,0.14
2022-12-09T20:49:19.756Z,0.11
2022-12-09T20:51:49.192Z,0.09
2022-12-09T20:54:18.378Z,0.10
2022-12-09T20:56:46.125Z,0.12
2022-12-09T20:59:14.000Z,0.10
2022-12-09T21:01:47.023Z,0.19
2022-12-09T21:04:15.424Z,0.18
2022-12-09T21:06:43.849Z,0.18
2022-12-09T21:09:14.891Z,0.18
2022-12-09T21:11:44.318Z,0.18
2022-12-09T21:14:13.283Z,0.20
2022-12-09T21:16:43.179Z,0.24
2022-12-09T21:19:14.209Z,0.22
2022-12-09T21:21:45.255Z,0.18
2022-12-09T21:24:13.919Z,0.15
2022-12-09T21:26:42.454Z,0.12
2022-12-09T21:29:13.210Z,0.13
2022-12-09T21:31:42.472Z,0.14
2022-12-09T21:34:11.785Z,0.12
2022-12-09T21:36:42.483Z,0.08
2022-12-09T21:39:13.072Z,0.10
2022-12-09T21:41:41.569Z,0.14
2022-12-09T21:44:15.162Z,0.18
2022-12-09T21:46:43.520Z,0.17
2022-12-09T21:49:11.920Z,0.17
2022-12-09T21:51:39.826Z,0.18
2022-12-09T21:54:07.721Z,0.09
2022-12-09T21:56:36.930Z,0.08
2022-12-09T21:59:06.588Z,0.07
2022-12-09T22:01:37.703Z,0.11
2022-12-09T22:04:07.120Z,0.21
2022-12-09T22:06:34.944Z,0.19
2022-12-09T22:09:03.383Z,0.14
2022-12-09T22:11:33.297Z,0.15
2022-12-09T22:14:02.083Z,0.11
2022-12-09T22:16:32.001Z,0.09
2022-12-09T22:19:02.189Z,0.19
2022-12-09T22:21:33.652Z,0.21
2022-12-09T22:24:04.443Z,0.14
2022-12-09T22:26:32.543Z,0.11
2022-12-09T22:29:01.442Z,0.07
2022-12-09T22:31:31.178Z,0.07
2022-12-09T22:34:03.034Z,0.05
2022-12-09T22:36:30.998Z,0.01
2022-12-09T22:38:58.777Z,0.01
2022-12-09T22:41:29.733Z,0.03
2022-12-09T22:43:58.267Z,0.05
2022-12-09T22:46:28.554Z,0.05
2022-12-09T22:48:57.504Z,0.02
2022-12-09T22:51:28.915Z,0.04
2022-12-09T22:53:57.866Z,0.02
2022-12-09T22:56:26.578Z,0.02
2022-12-09T23:03:18.150Z,-0.09
2022-12-09T23:05:46.009Z,-0.11
2022-12-09T23:08:14.367Z,-0.06
2022-12-09T23:10:42.858Z,-0.07
2022-12-09T23:13:11.140Z,-0.06
2022-12-09T23:15:38.879Z,-0.01
2022-12-09T23:18:06.704Z,0.05
2022-12-09T23:20:35.851Z,0.05
2022-12-09T23:23:03.560Z,0.13
2022-12-09T23:25:34.074Z,0.14
2022-12-09T23:28:01.814Z,0.11
2022-12-09T23:30:29.472Z,0.08
2022-12-09T23:32:59.691Z,0.10
2022-12-09T23:35:27.354Z,0.08
2022-12-09T23:37:56.379Z,0.06
2022-12-09T23:40:24.047Z,0.08
2022-12-09T23:42:53.936Z,0.12
2022-12-09T23:45:21.804Z,0.11
2022-12-09T23:47:49.480Z,0.09
2022-12-09T23:50:17.306Z,0.13
2022-12-09T23:52:44.983Z,0.20
2022-12-09T23:55:13.997Z,0.20
2022-12-09T23:57:41.671Z,0.15
